Terminal Aerodrome Forecast
Issued by NWS

Home | Current Version | Previous Version | Text Only | Print | Product List | Glossary On
Versions: 1 2 3 4 5 6 7 8 9 10 11 12 13
420
FTUS42 KMLB 281722
TAFTIX
TAF
KTIX 281722Z 2818/2918 12012G18KT P6SM FEW030
     FM290100 13008KT P6SM SKC
     FM291000 12004KT P6SM FEW020
     FM291500 13012G18KT P6SM FEW030=

USA.gov is the U.S. government's official web portal to all federal, state and local government web resources and services.